Terminal Aerodrome Forecast
Issued by NWS

Home | Current Version | Previous Version | Text Only | Print | Product List | Glossary Off
Versions: 1 2 3 4 5 6 7 8 9 10 11 12 13 14 15 16 17

318
FTUS43 KBIS 212339
TAFDIK
TAF
KDIK 212339Z 2200/2224 16006KT P6SM SCT250
     FM221300 22008KT P6SM SCT200
     FM221600 25011KT P6SM BKN050
     FM222300 27007KT P6SM SCT060 BKN100=

USA.gov is the U.S. government's official web portal to all federal, state and local government web resources and services.